createdAt,value
2023-04-16T00:02:15.860Z,99120.19
2023-04-16T00:06:18.764Z,99122.69
2023-04-16T00:10:20.195Z,99132.00
2023-04-16T00:14:21.813Z,99135.84
2023-04-16T00:18:23.211Z,99138.03
2023-04-16T00:22:25.973Z,99133.44
2023-04-16T00:26:27.400Z,99142.59
2023-04-16T00:30:28.889Z,99136.69
2023-04-16T00:34:30.314Z,99145.34
2023-04-16T00:38:33.111Z,99149.66
2023-04-16T00:42:34.527Z,99151.69
2023-04-16T00:46:36.842Z,99152.41
2023-04-16T00:50:38.323Z,99154.19
2023-04-16T00:54:41.417Z,99153.16
2023-04-16T00:58:42.853Z,99159.19
2023-04-16T01:02:44.551Z,99155.19
2023-04-16T01:06:46.059Z,99156.03
2023-04-16T01:10:48.842Z,99161.94
2023-04-16T01:14:50.376Z,99164.50
2023-04-16T01:18:51.792Z,99161.44
2023-04-16T01:22:54.708Z,99162.50
2023-04-16T01:26:57.991Z,99149.50
2023-04-16T01:30:59.453Z,99160.31
2023-04-16T01:35:01.026Z,99156.34
2023-04-16T01:39:04.127Z,99161.44
2023-04-16T01:43:05.632Z,99181.34
2023-04-16T01:47:07.947Z,99165.09
2023-04-16T01:51:09.487Z,99170.59
2023-04-16T01:55:12.341Z,99155.81
2023-04-16T01:59:13.820Z,99168.56
2023-04-16T02:03:15.782Z,99168.56
2023-04-16T02:07:17.291Z,99174.19
2023-04-16T02:11:21.033Z,99167.97
2023-04-16T02:15:22.480Z,99167.19
2023-04-16T02:19:24.071Z,99169.81
2023-04-16T02:23:25.595Z,99173.03
2023-04-16T02:27:28.345Z,99187.84
2023-04-16T02:31:29.791Z,99178.25
2023-04-16T02:35:31.549Z,99183.69
2023-04-16T02:39:33.000Z,99192.28
2023-04-16T02:43:35.877Z,99184.16
2023-04-16T02:47:37.448Z,99190.41
2023-04-16T02:51:38.913Z,99199.16
2023-04-16T02:55:40.335Z,99206.47
2023-04-16T02:59:43.095Z,99202.88
2023-04-16T03:03:44.538Z,99204.34
2023-04-16T03:07:45.985Z,99208.19
2023-04-16T03:11:47.437Z,99209.97
2023-04-16T03:15:50.378Z,99213.97
2023-04-16T03:19:51.853Z,99208.13
2023-04-16T03:23:53.338Z,99213.44
2023-04-16T03:27:54.774Z,99219.50
2023-04-16T03:31:57.574Z,99221.03
2023-04-16T03:35:59.198Z,99226.03
2023-04-16T03:40:00.813Z,99226.25
2023-04-16T03:44:02.289Z,99232.97
2023-04-16T03:48:05.506Z,99226.69
2023-04-16T03:52:06.996Z,99236.31
2023-04-16T03:56:08.490Z,99244.88
2023-04-16T04:00:10.662Z,99255.53
2023-04-16T04:04:13.709Z,99250.31
2023-04-16T04:08:15.223Z,99259.28
2023-04-16T04:12:16.627Z,99260.13
2023-04-16T04:16:18.106Z,99269.69
2023-04-16T04:20:20.980Z,99264.88
2023-04-16T04:24:22.396Z,99261.34
2023-04-16T04:28:23.870Z,99264.44
2023-04-16T04:32:25.397Z,99262.56
2023-04-16T04:36:28.187Z,99267.13
2023-04-16T04:40:29.626Z,99271.34
2023-04-16T04:44:31.027Z,99272.34
2023-04-16T04:48:32.456Z,99275.47
2023-04-16T04:52:35.239Z,99265.84
2023-04-16T04:56:36.665Z,99275.25
2023-04-16T05:00:38.056Z,99277.50
2023-04-16T05:04:39.617Z,99285.41
2023-04-16T05:08:42.394Z,99287.47
2023-04-16T05:12:43.810Z,99292.44
2023-04-16T05:16:45.277Z,99291.38
2023-04-16T05:20:46.693Z,99298.22
2023-04-16T05:24:49.454Z,99299.44
2023-04-16T05:28:51.016Z,99307.75
2023-04-16T05:32:52.486Z,99316.13
2023-04-16T05:36:53.930Z,99314.88
2023-04-16T05:40:58.384Z,99324.88
2023-04-16T05:44:59.826Z,99320.25
2023-04-16T05:49:03.556Z,99334.44
2023-04-16T05:53:07.094Z,99338.75
2023-04-16T05:57:09.834Z,99347.69
2023-04-16T06:01:11.320Z,99340.53
2023-04-16T06:05:12.808Z,99341.25
2023-04-16T06:09:14.256Z,99353.63
2023-04-16T06:13:17.068Z,99352.50
2023-04-16T06:17:18.655Z,99354.31
2023-04-16T06:21:20.117Z,99359.69
2023-04-16T06:25:21.554Z,99376.47
2023-04-16T06:29:36.857Z,99369.66
2023-04-16T06:33:41.630Z,99380.31
2023-04-16T06:37:43.085Z,99382.59
2023-04-16T06:41:44.523Z,99389.19
2023-04-16T06:45:47.347Z,99375.53
2023-04-16T06:49:48.770Z,99384.31
2023-04-16T06:53:50.168Z,99383.56
2023-04-16T06:57:51.595Z,99376.44
2023-04-16T07:01:55.038Z,99377.81
2023-04-16T07:05:56.596Z,99382.31
2023-04-16T07:09:59.076Z,99385.81
2023-04-16T07:14:00.528Z,99388.34
2023-04-16T07:18:03.435Z,99391.97
2023-04-16T07:22:05.223Z,99390.09
2023-04-16T07:26:06.707Z,99387.31
2023-04-16T07:30:08.870Z,99396.94
2023-04-16T07:34:11.792Z,99397.69
2023-04-16T07:38:13.471Z,99398.78
2023-04-16T07:42:15.120Z,99405.00
2023-04-16T07:46:16.670Z,99411.41
2023-04-16T07:50:19.537Z,99419.25
2023-04-16T07:54:21.093Z,99412.34
2023-04-16T07:58:22.639Z,99417.34
2023-04-16T08:02:24.232Z,99417.09
2023-04-16T08:06:27.202Z,99412.16
2023-04-16T08:10:28.781Z,99423.66
2023-04-16T08:14:30.254Z,99418.69
2023-04-16T08:18:31.836Z,99426.06
2023-04-16T08:22:34.676Z,99431.44
2023-04-16T08:26:36.266Z,99438.53
2023-04-16T08:30:37.786Z,99439.22
2023-04-16T08:34:39.329Z,99454.38
2023-04-16T08:38:42.159Z,99448.56
2023-04-16T08:42:46.104Z,99452.78
2023-04-16T08:46:47.723Z,99459.00
2023-04-16T08:50:52.744Z,99456.28
2023-04-16T08:55:04.992Z,99466.59
2023-04-16T08:59:06.746Z,99467.06
2023-04-16T09:03:09.007Z,99464.06
2023-04-16T09:07:11.365Z,99466.66
2023-04-16T09:11:18.055Z,99465.78
2023-04-16T09:15:21.131Z,99463.91
2023-04-16T09:19:23.242Z,99471.31
2023-04-16T09:23:24.882Z,99474.31
2023-04-16T09:27:28.501Z,99479.53
2023-04-16T09:31:30.121Z,99478.09
2023-04-16T09:35:45.549Z,99483.66
2023-04-16T09:39:55.086Z,99486.13
2023-04-16T09:43:59.316Z,99493.88
2023-04-16T09:48:04.517Z,99501.84
2023-04-16T09:52:12.367Z,99491.63
2023-04-16T09:56:13.931Z,99502.34
2023-04-16T10:00:18.622Z,99501.44
2023-04-16T10:04:20.244Z,99499.38
2023-04-16T10:08:23.969Z,99496.91
2023-04-16T10:12:25.652Z,99500.72
2023-04-16T10:16:29.461Z,99504.00
2023-04-16T10:20:31.363Z,99505.66
2023-04-16T10:24:34.679Z,99507.97
2023-04-16T10:28:36.901Z,99514.47
2023-04-16T10:32:40.733Z,99512.38
2023-04-16T10:36:42.809Z,99520.22
2023-04-16T10:40:44.867Z,99518.56
2023-04-16T10:44:46.307Z,99515.97
2023-04-16T10:48:52.930Z,99519.16
2023-04-16T10:53:22.951Z,99516.25
2023-04-16T10:57:29.076Z,99515.56
2023-04-16T11:01:32.554Z,99516.88
2023-04-16T11:05:46.808Z,99515.34
2023-04-16T11:09:53.756Z,99524.03
2023-04-16T11:13:56.115Z,99521.13
2023-04-16T11:17:57.755Z,99514.75
2023-04-16T11:22:00.736Z,99516.50
2023-04-16T11:26:02.264Z,99517.47
2023-04-16T11:30:05.952Z,99515.28
2023-04-16T11:34:07.842Z,99514.53
2023-04-16T11:38:10.630Z,99521.13
2023-04-16T11:42:19.522Z,99526.63
2023-04-16T11:46:27.298Z,99528.63
2023-04-16T11:50:29.131Z,99521.19
2023-04-16T11:54:32.005Z,99520.84
2023-04-16T11:58:33.434Z,99524.88
2023-04-16T12:02:36.664Z,99523.41
2023-04-16T12:06:38.166Z,99513.34
2023-04-16T12:10:55.041Z,99513.97
2023-04-16T12:14:57.653Z,99518.44
2023-04-16T12:19:00.195Z,99519.97
2023-04-16T12:23:01.623Z,99510.06
2023-04-16T12:27:04.437Z,99511.69
2023-04-16T12:31:06.193Z,99520.88
2023-04-16T12:35:08.535Z,99511.38
2023-04-16T12:39:10.734Z,99518.22
2023-04-16T12:43:13.807Z,99517.31
2023-04-16T12:47:15.586Z,99514.78
2023-04-16T12:51:17.007Z,99510.91
2023-04-16T12:55:18.980Z,99515.00
2023-04-16T12:59:21.729Z,99521.13
2023-04-16T13:03:23.206Z,99517.41
2023-04-16T13:07:24.865Z,99517.47
2023-04-16T13:11:26.337Z,99526.13
2023-04-16T13:15:29.096Z,99526.59
2023-04-16T13:19:30.870Z,99529.31
2023-04-16T13:23:32.418Z,99527.78
2023-04-16T13:27:33.865Z,99537.19
2023-04-16T13:31:36.937Z,99530.53
2023-04-16T13:35:38.839Z,99536.72
2023-04-16T13:39:40.285Z,99537.94
2023-04-16T13:43:41.707Z,99533.88
2023-04-16T13:47:44.462Z,99538.16
2023-04-16T13:51:45.977Z,99540.31
2023-04-16T13:55:47.521Z,99542.09
2023-04-16T13:59:48.974Z,99551.03
2023-04-16T14:03:51.774Z,99551.53
2023-04-16T14:07:53.213Z,99548.19
2023-04-16T14:11:54.988Z,99561.91
2023-04-16T14:15:56.553Z,99555.28
2023-04-16T14:19:59.350Z,99555.91
2023-04-16T14:24:00.886Z,99555.50
2023-04-16T14:28:02.443Z,99543.84
2023-04-16T14:32:04.529Z,99554.03
2023-04-16T14:36:07.781Z,99569.94
2023-04-16T14:40:10.076Z,99563.91
2023-04-16T14:44:11.625Z,99566.19
2023-04-16T14:48:13.173Z,99572.88
2023-04-16T14:52:16.358Z,99574.66
2023-04-16T14:56:17.762Z,99578.63
2023-04-16T15:00:19.809Z,99581.47
2023-04-16T15:04:21.582Z,99582.19
2023-04-16T15:08:24.609Z,99583.28
2023-04-16T15:12:26.019Z,99579.63
2023-04-16T15:16:27.549Z,99586.28
2023-04-16T15:20:28.968Z,99591.59
2023-04-16T15:24:31.734Z,99597.53
2023-04-16T15:28:33.212Z,99589.03
2023-04-16T15:32:34.693Z,99590.50
2023-04-16T15:36:36.208Z,99585.44
2023-04-16T15:40:38.986Z,99595.34
2023-04-16T15:44:40.473Z,99590.25
2023-04-16T15:48:41.970Z,99591.34
2023-04-16T15:52:43.496Z,99593.66
2023-04-16T15:56:46.750Z,99606.91
2023-04-16T16:00:48.207Z,99601.63
2023-04-16T16:04:49.666Z,99602.13
2023-04-16T16:08:51.150Z,99608.94
2023-04-16T16:12:53.919Z,99623.13
2023-04-16T16:16:55.437Z,99615.44
2023-04-16T16:20:57.078Z,99634.28
2023-04-16T16:24:58.572Z,99633.50
2023-04-16T16:29:01.397Z,99638.84
2023-04-16T16:33:02.922Z,99643.38
2023-04-16T16:37:04.943Z,99654.31
2023-04-16T16:41:06.567Z,99644.47
2023-04-16T16:45:10.890Z,99645.75
2023-04-16T16:49:12.494Z,99653.25
2023-04-16T16:53:14.074Z,99652.56
2023-04-16T16:57:15.501Z,99660.50
2023-04-16T17:01:18.652Z,99659.78
2023-04-16T17:05:20.413Z,99659.78
2023-04-16T17:09:21.908Z,99669.78
2023-04-16T17:13:23.338Z,99677.84
2023-04-16T17:17:26.959Z,99672.50
2023-04-16T17:21:28.455Z,99681.53
2023-04-16T17:25:30.354Z,99679.63
2023-04-16T17:29:31.781Z,99688.09
2023-04-16T17:33:34.560Z,99692.34
2023-04-16T17:37:35.979Z,99693.03
2023-04-16T17:41:37.399Z,99690.03
2023-04-16T17:45:38.870Z,99690.44
2023-04-16T17:49:41.799Z,99696.81
2023-04-16T17:53:43.248Z,99700.16
2023-04-16T17:57:44.689Z,99704.88
2023-04-16T18:01:46.234Z,99707.94
2023-04-16T18:05:49.056Z,99709.34
2023-04-16T18:09:50.464Z,99717.84
2023-04-16T18:13:51.900Z,99717.09
2023-04-16T18:17:53.330Z,99726.50
2023-04-16T18:21:56.106Z,99731.53
2023-04-16T18:25:57.537Z,99735.47
2023-04-16T18:29:59.485Z,99727.38
2023-04-16T18:34:01.006Z,99741.09
2023-04-16T18:38:03.853Z,99747.47
2023-04-16T18:42:05.492Z,99752.03
2023-04-16T18:46:06.916Z,99745.81
2023-04-16T18:50:09.147Z,99761.19
2023-04-16T18:54:11.962Z,99760.59
2023-04-16T18:58:13.498Z,99759.78
2023-04-16T19:02:14.987Z,99753.25
2023-04-16T19:06:16.472Z,99757.16
2023-04-16T19:10:19.212Z,99757.63
2023-04-16T19:14:20.639Z,99759.84
2023-04-16T19:18:22.304Z,99763.41
2023-04-16T19:22:23.846Z,99764.47
2023-04-16T19:26:27.653Z,99767.03
2023-04-16T19:30:29.171Z,99764.47
2023-04-16T19:34:30.647Z,99772.78
2023-04-16T19:38:32.107Z,99768.28
2023-04-16T19:42:35.009Z,99772.66
2023-04-16T19:46:36.967Z,99771.28
2023-04-16T19:50:39.364Z,99777.97
2023-04-16T19:54:40.810Z,99774.63
2023-04-16T19:58:43.631Z,99782.81
2023-04-16T20:02:45.089Z,99774.31
2023-04-16T20:06:46.635Z,99786.88
2023-04-16T20:10:50.382Z,99788.97
2023-04-16T20:14:53.162Z,99784.34
2023-04-16T20:18:54.625Z,99790.81
2023-04-16T20:22:56.079Z,99790.69
2023-04-16T20:26:57.499Z,99788.38
2023-04-16T20:31:00.401Z,99785.53
2023-04-16T20:35:01.909Z,99787.31
2023-04-16T20:39:03.395Z,99784.59
2023-04-16T20:43:04.933Z,99781.44
2023-04-16T20:47:08.098Z,99788.84
2023-04-16T20:51:09.679Z,99794.91
2023-04-16T20:55:11.181Z,99788.25
2023-04-16T20:59:12.759Z,99792.25
2023-04-16T21:03:15.797Z,99798.25
2023-04-16T21:07:17.332Z,99796.44
2023-04-16T21:11:18.824Z,99796.69
2023-04-16T21:15:20.226Z,99795.72
2023-04-16T21:19:22.987Z,99803.06
2023-04-16T21:23:24.395Z,99807.69
2023-04-16T21:27:25.820Z,99801.22
2023-04-16T21:31:27.479Z,99795.88
2023-04-16T21:35:32.648Z,99800.06
2023-04-16T21:39:34.067Z,99803.84
2023-04-16T21:43:35.512Z,99798.41
2023-04-16T21:47:37.418Z,99802.16
2023-04-16T21:51:40.734Z,99806.72
2023-04-16T21:55:42.230Z,99797.16
2023-04-16T21:59:43.767Z,99799.72
2023-04-16T22:03:45.323Z,99803.38
2023-04-16T22:07:48.226Z,99811.69
2023-04-16T22:11:49.669Z,99807.91
2023-04-16T22:15:51.330Z,99804.84
2023-04-16T22:19:52.794Z,99810.31
2023-04-16T22:23:57.896Z,99806.97
2023-04-16T22:27:59.561Z,99801.19
2023-04-16T22:32:01.070Z,99797.84
2023-04-16T22:36:02.497Z,99802.88
2023-04-16T22:40:06.816Z,99808.31
2023-04-16T22:44:08.386Z,99806.66
2023-04-16T22:48:10.096Z,99797.69
2023-04-16T22:52:11.588Z,99798.28
2023-04-16T22:56:14.365Z,99800.84
2023-04-16T23:00:16.235Z,99799.78
2023-04-16T23:04:17.904Z,99795.00
2023-04-16T23:08:19.383Z,99805.09
2023-04-16T23:12:22.166Z,99801.72
2023-04-16T23:16:24.408Z,99798.34
2023-04-16T23:20:25.871Z,99802.97
2023-04-16T23:24:27.309Z,99799.00
2023-04-16T23:28:30.066Z,99802.00
2023-04-16T23:32:31.693Z,99799.72
2023-04-16T23:36:33.130Z,99807.63
2023-04-16T23:40:34.556Z,99802.63
2023-04-16T23:44:37.393Z,99800.50
2023-04-16T23:48:38.830Z,99803.84
2023-04-16T23:52:40.257Z,99798.84
2023-04-16T23:56:41.707Z,99798.38
